createdAt,value
2022-09-24T00:00:34.653Z,88.80
2022-09-24T00:10:41.310Z,86.00
2022-09-24T00:20:43.631Z,89.50
2022-09-24T00:30:48.470Z,89.70
2022-09-24T00:40:51.971Z,87.20
2022-09-24T00:50:53.604Z,88.00
2022-09-24T01:01:11.073Z,86.90
2022-09-24T01:11:38.967Z,89.20
2022-09-24T01:22:04.806Z,84.00
2022-09-24T01:32:12.133Z,85.40
2022-09-24T01:42:16.413Z,82.60
2022-09-24T01:52:29.287Z,81.10
2022-09-24T02:02:41.797Z,78.30
2022-09-24T02:12:46.711Z,79.40
2022-09-24T02:22:50.266Z,78.90
2022-09-24T02:32:53.214Z,78.10
2022-09-24T02:42:54.746Z,76.80
2022-09-24T02:52:56.081Z,75.50
2022-09-24T03:02:57.921Z,73.60
2022-09-24T03:12:59.825Z,72.80
2022-09-24T03:23:01.736Z,71.80
2022-09-24T03:33:03.291Z,72.30
2022-09-24T03:43:04.632Z,74.40
2022-09-24T03:53:06.591Z,74.30
2022-09-24T04:03:08.725Z,77.60
2022-09-24T04:13:10.666Z,81.30
2022-09-24T04:23:13.872Z,78.50
2022-09-24T04:33:15.308Z,78.70
2022-09-24T04:43:18.152Z,75.90
2022-09-24T04:53:20.573Z,74.70
2022-09-24T05:03:25.045Z,75.00
2022-09-24T05:13:26.873Z,79.30
2022-09-24T05:23:28.663Z,76.10
2022-09-24T05:33:30.108Z,78.60
2022-09-24T05:43:33.951Z,80.40
2022-09-24T05:53:36.854Z,81.50
2022-09-24T06:03:38.332Z,81.70
2022-09-24T06:13:40.107Z,87.90
2022-09-24T06:23:42.472Z,93.50
2022-09-24T06:33:44.313Z,90.30
2022-09-24T06:55:16.406Z,89.40
2022-09-24T07:05:17.964Z,91.50
2022-09-24T07:15:19.529Z,90.40
2022-09-24T07:25:21.110Z,90.60
2022-09-24T07:35:22.806Z,91.30
2022-09-24T07:45:25.026Z,87.70
2022-09-24T07:55:27.737Z,81.70
2022-09-24T08:05:29.026Z,76.60
2022-09-24T08:15:30.309Z,65.00
2022-09-24T08:25:33.024Z,64.90
2022-09-24T08:35:34.692Z,61.10
2022-09-24T08:46:02.632Z,61.00
2022-09-24T08:56:09.231Z,58.30
2022-09-24T09:06:36.024Z,53.40
2022-09-24T09:16:58.495Z,52.30
2022-09-24T09:27:00.683Z,51.10
2022-09-24T09:37:25.535Z,49.60
2022-09-24T09:47:59.686Z,48.20
2022-09-24T09:58:22.246Z,38.50
2022-09-24T10:08:28.389Z,35.30
2022-09-24T10:18:46.028Z,29.60
2022-09-24T10:29:11.269Z,30.20
2022-09-24T10:39:19.386Z,27.70
2022-09-24T10:49:34.366Z,24.50
2022-09-24T11:00:04.986Z,24.70
2022-09-24T11:10:33.812Z,25.60
2022-09-24T11:20:40.689Z,22.70
2022-09-24T11:31:03.228Z,23.70
2022-09-24T11:41:30.166Z,20.20
2022-09-24T11:51:54.348Z,21.60
2022-09-24T12:02:26.110Z,21.70
2022-09-24T12:12:40.563Z,24.30
2022-09-24T12:22:44.124Z,23.60
2022-09-24T12:33:07.589Z,24.80
2022-09-24T12:43:27.085Z,28.20
2022-09-24T12:53:38.227Z,23.50
2022-09-24T13:03:46.697Z,21.10
2022-09-24T13:14:04.025Z,20.80
2022-09-24T13:24:15.386Z,23.10
2022-09-24T13:34:21.868Z,25.80
2022-09-24T13:44:26.828Z,27.10
2022-09-24T14:06:01.648Z,30.70
2022-09-24T14:16:11.963Z,32.50
2022-09-24T14:26:29.302Z,32.10
2022-09-24T14:36:32.309Z,33.90
2022-09-24T14:47:00.948Z,32.80
2022-09-24T14:57:20.905Z,33.70
2022-09-24T15:07:28.187Z,36.50
2022-09-24T15:17:33.927Z,35.60
2022-09-24T15:27:41.886Z,36.50
2022-09-24T15:37:43.742Z,35.90
2022-09-24T15:47:45.160Z,37.80
2022-09-24T15:57:47.023Z,37.70
2022-09-24T16:07:48.587Z,39.00
2022-09-24T16:17:51.826Z,40.10
2022-09-24T16:27:54.964Z,41.90
2022-09-24T16:37:57.085Z,44.70
2022-09-24T16:47:58.889Z,46.40
2022-09-24T16:58:00.030Z,51.40
2022-09-24T17:08:01.528Z,59.00
2022-09-24T17:18:03.363Z,58.30
2022-09-24T17:28:05.766Z,65.00
2022-09-24T17:38:07.222Z,72.50
2022-09-24T17:48:08.588Z,73.40
2022-09-24T17:58:10.084Z,75.80
2022-09-24T18:08:11.652Z,71.60
2022-09-24T18:18:13.185Z,71.20
2022-09-24T18:28:18.715Z,74.40
2022-09-24T18:38:22.965Z,78.80
2022-09-24T18:48:24.544Z,85.10
2022-09-24T18:58:25.802Z,72.10
2022-09-24T19:08:27.705Z,58.40
2022-09-24T19:18:29.009Z,58.10
2022-09-24T19:28:30.703Z,60.40
2022-09-24T19:38:34.865Z,64.90
2022-09-24T19:48:41.723Z,69.90
2022-09-24T19:58:42.939Z,71.80
2022-09-24T20:08:44.564Z,71.50
2022-09-24T20:18:46.646Z,77.00
2022-09-24T20:28:48.282Z,73.50
2022-09-24T20:38:50.586Z,82.40
2022-09-24T20:48:52.445Z,85.10
2022-09-24T20:58:55.265Z,97.30
2022-09-24T21:08:56.540Z,99.90
2022-09-24T21:18:58.364Z,99.90
2022-09-24T21:29:06.092Z,99.90
2022-09-24T21:39:24.965Z,99.90
2022-09-24T21:49:26.623Z,99.90
2022-09-24T21:59:46.548Z,99.90
2022-09-24T22:09:48.342Z,99.90
2022-09-24T22:19:49.764Z,99.90
2022-09-24T22:29:51.087Z,99.90
2022-09-24T22:39:52.262Z,99.90
2022-09-24T22:49:53.603Z,99.90
2022-09-24T22:59:55.004Z,99.90
2022-09-24T23:09:56.721Z,99.90
2022-09-24T23:19:58.621Z,99.90
2022-09-24T23:30:00.959Z,99.90
2022-09-24T23:40:02.882Z,99.90
2022-09-24T23:50:04.348Z,99.90
